Terminal Aerodrome Forecast
Issued by NWS

Home | Current Version | Previous Version | Text Only | Print | Product List | Glossary On
Versions: 1 2 3 4 5 6 7 8 9 10 11 12 13 14
000
FTUS43 KLSX 010520
TAFSUS
TAF
KSUS 010520Z 0106/0206 00000KT P6SM FEW250
     FM011500 22005KT P6SM SCT050
     FM020000 00000KT P6SM FEW250=

USA.gov is the U.S. government's official web portal to all federal, state and local government web resources and services.